sensor_id;sensor_type;location;lat;lon;timestamp;pressure;altitude;pressure_sealevel;temperature
71205;BMP180;58935;54.498;18.544;2023-02-01T00:02:00;98653.20;;;3.10
71205;BMP180;58935;54.498;18.544;2023-02-01T00:04:26;98668.00;;;3.10
71205;BMP180;58935;54.498;18.544;2023-02-01T00:06:52;98669.20;;;3.10
71205;BMP180;58935;54.498;18.544;2023-02-01T00:09:17;98678.20;;;3.10
71205;BMP180;58935;54.498;18.544;2023-02-01T00:11:45;98668.40;;;3.10
71205;BMP180;58935;54.498;18.544;2023-02-01T00:14:11;98680.00;;;3.10
71205;BMP180;58935;54.498;18.544;2023-02-01T00:16:36;98670.00;;;3.10
71205;BMP180;58935;54.498;18.544;2023-02-01T00:19:09;98663.80;;;3.08
71205;BMP180;58935;54.498;18.544;2023-02-01T00:21:41;98660.40;;;3.00
71205;BMP180;58935;54.498;18.544;2023-02-01T00:24:12;98670.40;;;3.02
71205;BMP180;58935;54.498;18.544;2023-02-01T00:26:41;98662.20;;;3.00
71205;BMP180;58935;54.498;18.544;2023-02-01T00:29:12;98680.80;;;3.06
71205;BMP180;58935;54.498;18.544;2023-02-01T00:31:39;98697.00;;;3.10
71205;BMP180;58935;54.498;18.544;2023-02-01T00:34:04;98675.60;;;3.10
71205;BMP180;58935;54.498;18.544;2023-02-01T00:36:30;98670.80;;;3.20
71205;BMP180;58935;54.498;18.544;2023-02-01T00:38:56;98670.40;;;3.20
71205;BMP180;58935;54.498;18.544;2023-02-01T00:41:22;98685.20;;;3.20
71205;BMP180;58935;54.498;18.544;2023-02-01T00:43:48;98684.80;;;3.20
71205;BMP180;58935;54.498;18.544;2023-02-01T00:46:16;98653.40;;;3.20
71205;BMP180;58935;54.498;18.544;2023-02-01T00:48:42;98696.40;;;3.10
71205;BMP180;58935;54.498;18.544;2023-02-01T00:51:15;98683.20;;;3.10
71205;BMP180;58935;54.498;18.544;2023-02-01T00:53:41;98674.40;;;3.10
71205;BMP180;58935;54.498;18.544;2023-02-01T00:56:09;98664.60;;;3.10
71205;BMP180;58935;54.498;18.544;2023-02-01T00:58:35;98667.00;;;3.10
71205;BMP180;58935;54.498;18.544;2023-02-01T01:01:18;98650.40;;;3.10
71205;BMP180;58935;54.498;18.544;2023-02-01T01:03:47;98680.80;;;3.10
71205;BMP180;58935;54.498;18.544;2023-02-01T01:06:16;98666.60;;;3.18
71205;BMP180;58935;54.498;18.544;2023-02-01T01:08:43;98654.60;;;3.20
71205;BMP180;58935;54.498;18.544;2023-02-01T01:11:11;98661.00;;;3.20
71205;BMP180;58935;54.498;18.544;2023-02-01T01:13:37;98661.80;;;3.18
71205;BMP180;58935;54.498;18.544;2023-02-01T01:16:04;98651.80;;;3.20
71205;BMP180;58935;54.498;18.544;2023-02-01T01:18:31;98649.00;;;3.10
71205;BMP180;58935;54.498;18.544;2023-02-01T01:20:57;98659.80;;;3.10
71205;BMP180;58935;54.498;18.544;2023-02-01T01:23:23;98679.40;;;3.00
71205;BMP180;58935;54.498;18.544;2023-02-01T01:25:49;98665.20;;;3.00
71205;BMP180;58935;54.498;18.544;2023-02-01T01:28:17;98673.80;;;2.90
71205;BMP180;58935;54.498;18.544;2023-02-01T01:30:43;98671.80;;;2.80
71205;BMP180;58935;54.498;18.544;2023-02-01T01:33:09;98668.20;;;2.74
71205;BMP180;58935;54.498;18.544;2023-02-01T01:35:35;98689.20;;;2.70
71205;BMP180;58935;54.498;18.544;2023-02-01T01:38:01;98684.20;;;2.70
71205;BMP180;58935;54.498;18.544;2023-02-01T01:40:27;98693.00;;;2.60
71205;BMP180;58935;54.498;18.544;2023-02-01T01:42:54;98694.20;;;2.60
71205;BMP180;58935;54.498;18.544;2023-02-01T01:45:24;98685.20;;;2.56
71205;BMP180;58935;54.498;18.544;2023-02-01T01:47:58;98680.00;;;2.50
71205;BMP180;58935;54.498;18.544;2023-02-01T01:50:35;98674.20;;;2.50
71205;BMP180;58935;54.498;18.544;2023-02-01T01:53:05;98664.00;;;2.50
71205;BMP180;58935;54.498;18.544;2023-02-01T01:55:36;98669.20;;;2.50
71205;BMP180;58935;54.498;18.544;2023-02-01T01:58:06;98658.80;;;2.60
71205;BMP180;58935;54.498;18.544;2023-02-01T02:00:33;98655.80;;;2.60
71205;BMP180;58935;54.498;18.544;2023-02-01T02:03:07;98640.20;;;2.60
71205;BMP180;58935;54.498;18.544;2023-02-01T02:05:38;98656.00;;;2.70
71205;BMP180;58935;54.498;18.544;2023-02-01T02:08:04;98646.80;;;2.70
71205;BMP180;58935;54.498;18.544;2023-02-01T02:10:30;98626.40;;;2.74
71205;BMP180;58935;54.498;18.544;2023-02-01T02:12:59;98644.00;;;2.80
71205;BMP180;58935;54.498;18.544;2023-02-01T02:15:24;98630.20;;;2.80
71205;BMP180;58935;54.498;18.544;2023-02-01T02:17:57;98648.40;;;2.88
71205;BMP180;58935;54.498;18.544;2023-02-01T02:37:09;98653.20;;;2.80
71205;BMP180;58935;54.498;18.544;2023-02-01T02:39:44;98659.60;;;2.80
71205;BMP180;58935;54.498;18.544;2023-02-01T02:44:50;98652.60;;;2.80
71205;BMP180;58935;54.498;18.544;2023-02-01T02:47:29;98639.80;;;2.80
71205;BMP180;58935;54.498;18.544;2023-02-01T02:50:10;98661.00;;;2.80
71205;BMP180;58935;54.498;18.544;2023-02-01T02:52:46;98660.40;;;2.82
71205;BMP180;58935;54.498;18.544;2023-02-01T02:55:16;98663.00;;;2.88
71205;BMP180;58935;54.498;18.544;2023-02-01T02:57:43;98656.60;;;2.90
71205;BMP180;58935;54.498;18.544;2023-02-01T03:00:15;98654.20;;;2.90
71205;BMP180;58935;54.498;18.544;2023-02-01T03:02:48;98655.60;;;2.90
71205;BMP180;58935;54.498;18.544;2023-02-01T03:05:17;98636.40;;;2.90
71205;BMP180;58935;54.498;18.544;2023-02-01T03:10:44;98662.60;;;2.90
71205;BMP180;58935;54.498;18.544;2023-02-01T03:15:57;98670.20;;;3.00
71205;BMP180;58935;54.498;18.544;2023-02-01T03:18:31;98677.00;;;3.00
71205;BMP180;58935;54.498;18.544;2023-02-01T03:21:00;98680.20;;;3.00
71205;BMP180;58935;54.498;18.544;2023-02-01T03:23:31;98661.60;;;3.06
71205;BMP180;58935;54.498;18.544;2023-02-01T03:26:00;98669.80;;;3.00
71205;BMP180;58935;54.498;18.544;2023-02-01T03:28:31;98654.60;;;3.00
71205;BMP180;58935;54.498;18.544;2023-02-01T03:30:58;98677.40;;;3.00
71205;BMP180;58935;54.498;18.544;2023-02-01T03:33:26;98685.80;;;2.90
71205;BMP180;58935;54.498;18.544;2023-02-01T03:36:00;98676.60;;;2.90
71205;BMP180;58935;54.498;18.544;2023-02-01T03:38:38;98677.00;;;2.90
71205;BMP180;58935;54.498;18.544;2023-02-01T03:41:13;98666.80;;;2.84
71205;BMP180;58935;54.498;18.544;2023-02-01T03:43:51;98664.60;;;2.90
71205;BMP180;58935;54.498;18.544;2023-02-01T03:46:28;98671.80;;;2.90
71205;BMP180;58935;54.498;18.544;2023-02-01T03:49:02;98678.80;;;2.94
71205;BMP180;58935;54.498;18.544;2023-02-01T03:51:29;98668.60;;;3.00
71205;BMP180;58935;54.498;18.544;2023-02-01T03:53:55;98681.00;;;3.08
71205;BMP180;58935;54.498;18.544;2023-02-01T03:56:24;98677.00;;;3.10
71205;BMP180;58935;54.498;18.544;2023-02-01T03:58:51;98661.00;;;3.10
71205;BMP180;58935;54.498;18.544;2023-02-01T04:01:19;98671.20;;;3.20
71205;BMP180;58935;54.498;18.544;2023-02-01T04:03:45;98671.40;;;3.20
71205;BMP180;58935;54.498;18.544;2023-02-01T04:06:13;98680.60;;;3.20
71205;BMP180;58935;54.498;18.544;2023-02-01T04:08:38;98668.00;;;3.20
71205;BMP180;58935;54.498;18.544;2023-02-01T04:11:04;98675.20;;;3.20
71205;BMP180;58935;54.498;18.544;2023-02-01T04:13:29;98684.20;;;3.20
71205;BMP180;58935;54.498;18.544;2023-02-01T04:15:55;98698.80;;;3.20
71205;BMP180;58935;54.498;18.544;2023-02-01T04:18:20;98708.80;;;3.20
71205;BMP180;58935;54.498;18.544;2023-02-01T04:20:46;98702.20;;;3.20
71205;BMP180;58935;54.498;18.544;2023-02-01T04:23:11;98699.60;;;3.20
71205;BMP180;58935;54.498;18.544;2023-02-01T04:25:37;98698.80;;;3.20
71205;BMP180;58935;54.498;18.544;2023-02-01T04:28:02;98698.60;;;3.20
71205;BMP180;58935;54.498;18.544;2023-02-01T04:30:28;98689.60;;;3.10
71205;BMP180;58935;54.498;18.544;2023-02-01T04:32:54;98697.80;;;3.10
71205;BMP180;58935;54.498;18.544;2023-02-01T04:35:19;98695.20;;;3.00
71205;BMP180;58935;54.498;18.544;2023-02-01T04:37:45;98692.20;;;3.00
71205;BMP180;58935;54.498;18.544;2023-02-01T04:40:11;98689.40;;;2.94
71205;BMP180;58935;54.498;18.544;2023-02-01T04:42:36;98687.00;;;2.90
71205;BMP180;58935;54.498;18.544;2023-02-01T04:45:02;98690.80;;;2.90
71205;BMP180;58935;54.498;18.544;2023-02-01T04:47:28;98689.60;;;2.90
71205;BMP180;58935;54.498;18.544;2023-02-01T04:52:19;98677.80;;;2.90
71205;BMP180;58935;54.498;18.544;2023-02-01T04:54:44;98656.40;;;2.90
71205;BMP180;58935;54.498;18.544;2023-02-01T04:57:10;98676.80;;;2.92
71205;BMP180;58935;54.498;18.544;2023-02-01T04:59:39;98667.40;;;3.00
71205;BMP180;58935;54.498;18.544;2023-02-01T05:02:04;98667.40;;;3.00
71205;BMP180;58935;54.498;18.544;2023-02-01T05:04:29;98653.60;;;2.98
71205;BMP180;58935;54.498;18.544;2023-02-01T05:06:55;98685.00;;;2.98
71205;BMP180;58935;54.498;18.544;2023-02-01T05:09:20;98675.60;;;2.96
71205;BMP180;58935;54.498;18.544;2023-02-01T05:11:47;98682.80;;;3.00
71205;BMP180;58935;54.498;18.544;2023-02-01T05:14:15;98671.20;;;3.00
71205;BMP180;58935;54.498;18.544;2023-02-01T05:16:41;98683.00;;;3.00
71205;BMP180;58935;54.498;18.544;2023-02-01T05:19:06;98676.00;;;3.00
71205;BMP180;58935;54.498;18.544;2023-02-01T05:21:32;98691.20;;;3.10
71205;BMP180;58935;54.498;18.544;2023-02-01T05:23:57;98684.20;;;3.10
71205;BMP180;58935;54.498;18.544;2023-02-01T05:26:26;98680.60;;;3.10
71205;BMP180;58935;54.498;18.544;2023-02-01T05:28:52;98683.60;;;3.10
71205;BMP180;58935;54.498;18.544;2023-02-01T05:31:17;98685.00;;;3.10
71205;BMP180;58935;54.498;18.544;2023-02-01T05:33:43;98671.20;;;3.10
71205;BMP180;58935;54.498;18.544;2023-02-01T05:36:08;98669.60;;;3.20
71205;BMP180;58935;54.498;18.544;2023-02-01T05:38:34;98670.80;;;3.20
71205;BMP180;58935;54.498;18.544;2023-02-01T05:40:59;98666.40;;;3.20
71205;BMP180;58935;54.498;18.544;2023-02-01T05:43:25;98676.60;;;3.20
71205;BMP180;58935;54.498;18.544;2023-02-01T05:45:52;98679.20;;;3.20
71205;BMP180;58935;54.498;18.544;2023-02-01T05:48:20;98676.00;;;3.20
71205;BMP180;58935;54.498;18.544;2023-02-01T05:50:46;98659.60;;;3.28
71205;BMP180;58935;54.498;18.544;2023-02-01T05:53:12;98662.60;;;3.30
71205;BMP180;58935;54.498;18.544;2023-02-01T05:55:38;98669.80;;;3.30
71205;BMP180;58935;54.498;18.544;2023-02-01T05:58:04;98675.60;;;3.30
71205;BMP180;58935;54.498;18.544;2023-02-01T06:00:33;98673.60;;;3.40
71205;BMP180;58935;54.498;18.544;2023-02-01T06:03:01;98685.40;;;3.40
71205;BMP180;58935;54.498;18.544;2023-02-01T06:05:27;98686.00;;;3.50
71205;BMP180;58935;54.498;18.544;2023-02-01T06:07:52;98688.00;;;3.50
71205;BMP180;58935;54.498;18.544;2023-02-01T06:10:18;98683.60;;;3.56
71205;BMP180;58935;54.498;18.544;2023-02-01T06:12:44;98672.80;;;3.60
71205;BMP180;58935;54.498;18.544;2023-02-01T06:15:11;98684.40;;;3.60
71205;BMP180;58935;54.498;18.544;2023-02-01T06:17:38;98683.20;;;3.64
71205;BMP180;58935;54.498;18.544;2023-02-01T06:20:06;98683.60;;;3.70
71205;BMP180;58935;54.498;18.544;2023-02-01T06:22:37;98674.80;;;3.70
71205;BMP180;58935;54.498;18.544;2023-02-01T06:25:06;98678.60;;;3.70
71205;BMP180;58935;54.498;18.544;2023-02-01T06:27:33;98684.00;;;3.70
71205;BMP180;58935;54.498;18.544;2023-02-01T06:30:00;98689.00;;;3.74
71205;BMP180;58935;54.498;18.544;2023-02-01T06:32:28;98681.80;;;3.78
71205;BMP180;58935;54.498;18.544;2023-02-01T06:34:53;98677.20;;;3.70
71205;BMP180;58935;54.498;18.544;2023-02-01T06:37:23;98685.80;;;3.70
71205;BMP180;58935;54.498;18.544;2023-02-01T06:39:50;98689.00;;;3.70
71205;BMP180;58935;54.498;18.544;2023-02-01T06:42:16;98693.60;;;3.70
71205;BMP180;58935;54.498;18.544;2023-02-01T06:44:41;98678.80;;;3.70
71205;BMP180;58935;54.498;18.544;2023-02-01T06:47:06;98693.80;;;3.70
71205;BMP180;58935;54.498;18.544;2023-02-01T06:49:32;98694.20;;;3.68
71205;BMP180;58935;54.498;18.544;2023-02-01T06:51:57;98690.00;;;3.66
71205;BMP180;58935;54.498;18.544;2023-02-01T06:54:25;98698.00;;;3.70
71205;BMP180;58935;54.498;18.544;2023-02-01T06:56:51;98700.60;;;3.70
71205;BMP180;58935;54.498;18.544;2023-02-01T06:59:16;98684.20;;;3.70
71205;BMP180;58935;54.498;18.544;2023-02-01T07:01:42;98694.80;;;3.80
71205;BMP180;58935;54.498;18.544;2023-02-01T07:04:10;98705.60;;;3.80
71205;BMP180;58935;54.498;18.544;2023-02-01T07:06:39;98688.20;;;3.80
71205;BMP180;58935;54.498;18.544;2023-02-01T07:09:07;98705.00;;;3.90
71205;BMP180;58935;54.498;18.544;2023-02-01T07:11:33;98706.20;;;3.90
71205;BMP180;58935;54.498;18.544;2023-02-01T07:13:59;98701.40;;;3.92
71205;BMP180;58935;54.498;18.544;2023-02-01T07:16:25;98714.40;;;4.00
71205;BMP180;58935;54.498;18.544;2023-02-01T07:18:52;98707.60;;;4.00
71205;BMP180;58935;54.498;18.544;2023-02-01T07:21:19;98694.80;;;4.00
71205;BMP180;58935;54.498;18.544;2023-02-01T07:23:45;98713.20;;;4.02
71205;BMP180;58935;54.498;18.544;2023-02-01T07:26:12;98728.20;;;4.10
71205;BMP180;58935;54.498;18.544;2023-02-01T07:28:39;98731.00;;;4.10
71205;BMP180;58935;54.498;18.544;2023-02-01T07:31:11;98720.80;;;4.12
71205;BMP180;58935;54.498;18.544;2023-02-01T07:33:38;98724.40;;;4.20
71205;BMP180;58935;54.498;18.544;2023-02-01T07:36:06;98725.20;;;4.20
71205;BMP180;58935;54.498;18.544;2023-02-01T07:38:34;98730.20;;;4.20
71205;BMP180;58935;54.498;18.544;2023-02-01T07:41:01;98732.40;;;4.26
71205;BMP180;58935;54.498;18.544;2023-02-01T07:43:30;98736.80;;;4.30
71205;BMP180;58935;54.498;18.544;2023-02-01T07:45:56;98735.20;;;4.30
71205;BMP180;58935;54.498;18.544;2023-02-01T07:48:22;98726.20;;;4.30
71205;BMP180;58935;54.498;18.544;2023-02-01T07:50:56;98729.60;;;4.32
71205;BMP180;58935;54.498;18.544;2023-02-01T07:53:21;98727.80;;;4.40
71205;BMP180;58935;54.498;18.544;2023-02-01T07:55:47;98723.40;;;4.40
71205;BMP180;58935;54.498;18.544;2023-02-01T07:58:14;98733.80;;;4.40
71205;BMP180;58935;54.498;18.544;2023-02-01T08:00:40;98715.20;;;4.48
71205;BMP180;58935;54.498;18.544;2023-02-01T08:03:08;98708.60;;;4.50
71205;BMP180;58935;54.498;18.544;2023-02-01T08:05:33;98750.60;;;4.50
71205;BMP180;58935;54.498;18.544;2023-02-01T08:07:59;98719.40;;;4.50
71205;BMP180;58935;54.498;18.544;2023-02-01T08:10:27;98697.80;;;4.50
71205;BMP180;58935;54.498;18.544;2023-02-01T08:12:57;98731.80;;;4.50
71205;BMP180;58935;54.498;18.544;2023-02-01T08:15:23;98701.60;;;4.60
71205;BMP180;58935;54.498;18.544;2023-02-01T08:17:49;98719.80;;;4.60
71205;BMP180;58935;54.498;18.544;2023-02-01T08:20:16;98697.60;;;4.68
71205;BMP180;58935;54.498;18.544;2023-02-01T08:22:42;98724.80;;;4.70
71205;BMP180;58935;54.498;18.544;2023-02-01T08:25:08;98722.80;;;4.70
71205;BMP180;58935;54.498;18.544;2023-02-01T08:27:34;98710.20;;;4.70
71205;BMP180;58935;54.498;18.544;2023-02-01T08:29:59;98700.00;;;4.72
71205;BMP180;58935;54.498;18.544;2023-02-01T08:32:26;98719.20;;;4.80
71205;BMP180;58935;54.498;18.544;2023-02-01T08:34:52;98714.00;;;4.80
71205;BMP180;58935;54.498;18.544;2023-02-01T08:37:17;98721.20;;;4.80
71205;BMP180;58935;54.498;18.544;2023-02-01T08:39:43;98726.00;;;4.78
71205;BMP180;58935;54.498;18.544;2023-02-01T08:42:10;98734.60;;;4.80
71205;BMP180;58935;54.498;18.544;2023-02-01T08:44:39;98730.60;;;4.80
71205;BMP180;58935;54.498;18.544;2023-02-01T08:47:07;98723.40;;;4.80
71205;BMP180;58935;54.498;18.544;2023-02-01T08:49:32;98719.80;;;4.80
71205;BMP180;58935;54.498;18.544;2023-02-01T08:54:32;98739.40;;;4.96
71205;BMP180;58935;54.498;18.544;2023-02-01T08:56:57;98726.60;;;5.00
71205;BMP180;58935;54.498;18.544;2023-02-01T08:59:22;98720.00;;;5.10
71205;BMP180;58935;54.498;18.544;2023-02-01T09:01:48;98714.00;;;5.10
71205;BMP180;58935;54.498;18.544;2023-02-01T09:04:15;98724.00;;;5.08
71205;BMP180;58935;54.498;18.544;2023-02-01T09:06:41;98700.60;;;5.10
71205;BMP180;58935;54.498;18.544;2023-02-01T09:09:07;98743.00;;;5.10
71205;BMP180;58935;54.498;18.544;2023-02-01T09:11:32;98730.00;;;5.10
71205;BMP180;58935;54.498;18.544;2023-02-01T09:13:58;98734.40;;;5.10
71205;BMP180;58935;54.498;18.544;2023-02-01T09:16:23;98730.40;;;5.20
71205;BMP180;58935;54.498;18.544;2023-02-01T09:18:49;98736.40;;;5.22
71205;BMP180;58935;54.498;18.544;2023-02-01T09:21:14;98740.40;;;5.30
71205;BMP180;58935;54.498;18.544;2023-02-01T09:23:40;98748.40;;;5.30
71205;BMP180;58935;54.498;18.544;2023-02-01T09:26:05;98748.00;;;5.30
71205;BMP180;58935;54.498;18.544;2023-02-01T09:28:34;98762.20;;;5.20
71205;BMP180;58935;54.498;18.544;2023-02-01T09:31:04;98761.00;;;5.20
71205;BMP180;58935;54.498;18.544;2023-02-01T09:33:29;98741.80;;;5.12
71205;BMP180;58935;54.498;18.544;2023-02-01T09:35:56;98753.60;;;5.10
71205;BMP180;58935;54.498;18.544;2023-02-01T09:38:22;98751.60;;;5.06
71205;BMP180;58935;54.498;18.544;2023-02-01T09:40:49;98754.60;;;5.00
71205;BMP180;58935;54.498;18.544;2023-02-01T09:48:41;98748.80;;;4.90
71205;BMP180;58935;54.498;18.544;2023-02-01T09:51:15;98744.00;;;4.82
71205;BMP180;58935;54.498;18.544;2023-02-01T09:53:43;98743.80;;;4.80
71205;BMP180;58935;54.498;18.544;2023-02-01T09:56:14;98746.20;;;4.88
71205;BMP180;58935;54.498;18.544;2023-02-01T09:58:45;98740.20;;;4.90
71205;BMP180;58935;54.498;18.544;2023-02-01T10:01:19;98745.60;;;5.00
71205;BMP180;58935;54.498;18.544;2023-02-01T10:03:45;98722.00;;;5.00
71205;BMP180;58935;54.498;18.544;2023-02-01T10:08:52;98752.40;;;5.10
71205;BMP180;58935;54.498;18.544;2023-02-01T10:11:32;98754.80;;;5.00
71205;BMP180;58935;54.498;18.544;2023-02-01T10:14:41;98765.20;;;4.90
71205;BMP180;58935;54.498;18.544;2023-02-01T10:18:27;98762.60;;;4.80
71205;BMP180;58935;54.498;18.544;2023-02-01T10:20:21;98730.20;;;4.82
71205;BMP180;58935;54.498;18.544;2023-02-01T10:25:29;98705.40;;;4.80
71205;BMP180;58935;54.498;18.544;2023-02-01T10:28:00;98746.00;;;4.80
71205;BMP180;58935;54.498;18.544;2023-02-01T10:30:32;98743.60;;;4.80
71205;BMP180;58935;54.498;18.544;2023-02-01T10:33:15;98754.60;;;4.80
71205;BMP180;58935;54.498;18.544;2023-02-01T10:35:44;98746.80;;;4.74
71205;BMP180;58935;54.498;18.544;2023-02-01T10:38:22;98749.00;;;4.72
71205;BMP180;58935;54.498;18.544;2023-02-01T10:40:53;98754.60;;;4.80
71205;BMP180;58935;54.498;18.544;2023-02-01T10:43:22;98754.40;;;4.80
71205;BMP180;58935;54.498;18.544;2023-02-01T10:45:48;98753.80;;;4.90
71205;BMP180;58935;54.498;18.544;2023-02-01T10:48:16;98769.80;;;5.00
71205;BMP180;58935;54.498;18.544;2023-02-01T10:53:17;98751.40;;;5.10
71205;BMP180;58935;54.498;18.544;2023-02-01T10:55:50;98765.00;;;5.10
71205;BMP180;58935;54.498;18.544;2023-02-01T10:58:19;98774.00;;;5.20
71205;BMP180;58935;54.498;18.544;2023-02-01T11:00:58;98782.20;;;5.20
71205;BMP180;58935;54.498;18.544;2023-02-01T11:03:55;98772.80;;;5.20
71205;BMP180;58935;54.498;18.544;2023-02-01T11:06:33;98772.00;;;5.10
71205;BMP180;58935;54.498;18.544;2023-02-01T11:09:24;98780.20;;;5.10
71205;BMP180;58935;54.498;18.544;2023-02-01T11:11:56;98775.60;;;5.00
71205;BMP180;58935;54.498;18.544;2023-02-01T11:14:38;98787.20;;;4.84
71205;BMP180;58935;54.498;18.544;2023-02-01T11:19:38;98774.20;;;4.70
71205;BMP180;58935;54.498;18.544;2023-02-01T11:22:03;98778.00;;;4.66
71205;BMP180;58935;54.498;18.544;2023-02-01T11:24:32;98772.40;;;4.60
71205;BMP180;58935;54.498;18.544;2023-02-01T11:27:03;98773.60;;;4.60
71205;BMP180;58935;54.498;18.544;2023-02-01T11:29:36;98769.40;;;4.50
71205;BMP180;58935;54.498;18.544;2023-02-01T11:32:03;98760.80;;;4.50
71205;BMP180;58935;54.498;18.544;2023-02-01T11:34:42;98769.60;;;4.50
71205;BMP180;58935;54.498;18.544;2023-02-01T11:37:15;98788.40;;;4.50
71205;BMP180;58935;54.498;18.544;2023-02-01T11:39:44;98777.20;;;4.50
71205;BMP180;58935;54.498;18.544;2023-02-01T11:42:18;98777.00;;;4.54
71205;BMP180;58935;54.498;18.544;2023-02-01T11:44:45;98761.80;;;4.60
71205;BMP180;58935;54.498;18.544;2023-02-01T11:47:19;98775.00;;;4.68
71205;BMP180;58935;54.498;18.544;2023-02-01T11:49:45;98778.20;;;4.70
71205;BMP180;58935;54.498;18.544;2023-02-01T11:52:36;98760.40;;;4.76
71205;BMP180;58935;54.498;18.544;2023-02-01T11:58:06;98765.60;;;5.00
71205;BMP180;58935;54.498;18.544;2023-02-01T12:08:35;98766.40;;;5.30
71205;BMP180;58935;54.498;18.544;2023-02-01T12:11:24;98774.80;;;5.42
71205;BMP180;58935;54.498;18.544;2023-02-01T12:15:19;98756.20;;;5.50
71205;BMP180;58935;54.498;18.544;2023-02-01T12:23:04;98746.40;;;5.46
71205;BMP180;58935;54.498;18.544;2023-02-01T12:34:06;98740.80;;;5.10
71205;BMP180;58935;54.498;18.544;2023-02-01T12:39:19;98751.40;;;4.70
71205;BMP180;58935;54.498;18.544;2023-02-01T12:41:53;98749.20;;;4.60
71205;BMP180;58935;54.498;18.544;2023-02-01T12:44:28;98766.00;;;4.40
71205;BMP180;58935;54.498;18.544;2023-02-01T12:47:03;98771.40;;;4.30
71205;BMP180;58935;54.498;18.544;2023-02-01T12:52:05;98776.60;;;4.10
71205;BMP180;58935;54.498;18.544;2023-02-01T12:54:54;98754.00;;;3.98
71205;BMP180;58935;54.498;18.544;2023-02-01T12:57:26;98759.20;;;3.80
71205;BMP180;58935;54.498;18.544;2023-02-01T13:02:33;98765.20;;;3.60
71205;BMP180;58935;54.498;18.544;2023-02-01T13:05:16;98773.60;;;3.50
71205;BMP180;58935;54.498;18.544;2023-02-01T13:07:48;98772.80;;;3.50
71205;BMP180;58935;54.498;18.544;2023-02-01T13:10:21;98781.00;;;3.50
71205;BMP180;58935;54.498;18.544;2023-02-01T13:12:54;98763.80;;;3.50
71205;BMP180;58935;54.498;18.544;2023-02-01T13:15:27;98768.80;;;3.50
71205;BMP180;58935;54.498;18.544;2023-02-01T13:18:01;98783.20;;;3.50
71205;BMP180;58935;54.498;18.544;2023-02-01T13:20:34;98782.40;;;3.50
71205;BMP180;58935;54.498;18.544;2023-02-01T13:23:13;98768.00;;;3.40
71205;BMP180;58935;54.498;18.544;2023-02-01T13:25:47;98761.60;;;3.40
71205;BMP180;58935;54.498;18.544;2023-02-01T13:29:06;98765.40;;;3.40
71205;BMP180;58935;54.498;18.544;2023-02-01T13:37:03;98781.60;;;3.78
71205;BMP180;58935;54.498;18.544;2023-02-01T13:44:25;98805.00;;;4.24
71205;BMP180;58935;54.498;18.544;2023-02-01T13:46:56;98806.80;;;4.40
71205;BMP180;58935;54.498;18.544;2023-02-01T13:49:26;98815.20;;;4.40
71205;BMP180;58935;54.498;18.544;2023-02-01T13:51:54;98810.60;;;4.40
71205;BMP180;58935;54.498;18.544;2023-02-01T13:56:50;98816.20;;;4.36
71205;BMP180;58935;54.498;18.544;2023-02-01T13:59:35;98810.60;;;4.30
71205;BMP180;58935;54.498;18.544;2023-02-01T14:07:18;98814.00;;;4.10
71205;BMP180;58935;54.498;18.544;2023-02-01T14:09:43;98828.60;;;4.00
71205;BMP180;58935;54.498;18.544;2023-02-01T14:14:40;98834.00;;;3.90
71205;BMP180;58935;54.498;18.544;2023-02-01T14:22:43;98865.00;;;3.70
71205;BMP180;58935;54.498;18.544;2023-02-01T14:25:16;98858.40;;;3.54
71205;BMP180;58935;54.498;18.544;2023-02-01T14:27:42;98865.80;;;3.40
71205;BMP180;58935;54.498;18.544;2023-02-01T14:30:15;98871.00;;;3.20
71205;BMP180;58935;54.498;18.544;2023-02-01T14:32:41;98861.60;;;3.04
71205;BMP180;58935;54.498;18.544;2023-02-01T14:35:17;98866.20;;;2.90
71205;BMP180;58935;54.498;18.544;2023-02-01T14:37:45;98854.80;;;2.72
71205;BMP180;58935;54.498;18.544;2023-02-01T14:40:20;98866.00;;;2.70
71205;BMP180;58935;54.498;18.544;2023-02-01T14:42:50;98856.40;;;2.60
71205;BMP180;58935;54.498;18.544;2023-02-01T14:45:47;98854.00;;;2.54
71205;BMP180;58935;54.498;18.544;2023-02-01T14:51:07;98853.40;;;2.50
71205;BMP180;58935;54.498;18.544;2023-02-01T14:53:34;98859.60;;;2.50
71205;BMP180;58935;54.498;18.544;2023-02-01T14:56:07;98864.20;;;2.50
71205;BMP180;58935;54.498;18.544;2023-02-01T14:58:41;98848.60;;;2.44
71205;BMP180;58935;54.498;18.544;2023-02-01T15:01:20;98861.80;;;2.40
71205;BMP180;58935;54.498;18.544;2023-02-01T15:03:53;98863.20;;;2.30
71205;BMP180;58935;54.498;18.544;2023-02-01T15:06:42;98868.20;;;2.30
71205;BMP180;58935;54.498;18.544;2023-02-01T15:09:16;98859.40;;;2.20
71205;BMP180;58935;54.498;18.544;2023-02-01T15:14:14;98861.20;;;2.18
71205;BMP180;58935;54.498;18.544;2023-02-01T15:16:42;98869.60;;;2.14
71205;BMP180;58935;54.498;18.544;2023-02-01T15:19:10;98871.40;;;2.16
71205;BMP180;58935;54.498;18.544;2023-02-01T15:21:58;98868.00;;;2.18
71205;BMP180;58935;54.498;18.544;2023-02-01T15:24:28;98864.80;;;2.20
71205;BMP180;58935;54.498;18.544;2023-02-01T15:26:55;98876.60;;;2.20
71205;BMP180;58935;54.498;18.544;2023-02-01T15:29:22;98884.20;;;2.20
71205;BMP180;58935;54.498;18.544;2023-02-01T15:31:53;98881.80;;;2.30
71205;BMP180;58935;54.498;18.544;2023-02-01T15:34:19;98881.40;;;2.30
71205;BMP180;58935;54.498;18.544;2023-02-01T15:36:45;98882.00;;;2.30
71205;BMP180;58935;54.498;18.544;2023-02-01T15:39:26;98877.20;;;2.40
71205;BMP180;58935;54.498;18.544;2023-02-01T15:41:56;98883.20;;;2.40
71205;BMP180;58935;54.498;18.544;2023-02-01T15:44:43;98873.60;;;2.40
71205;BMP180;58935;54.498;18.544;2023-02-01T15:47:23;98892.20;;;2.44
71205;BMP180;58935;54.498;18.544;2023-02-01T15:49:53;98886.20;;;2.40
71205;BMP180;58935;54.498;18.544;2023-02-01T15:52:24;98895.00;;;2.40
71205;BMP180;58935;54.498;18.544;2023-02-01T15:54:55;98890.20;;;2.40
71205;BMP180;58935;54.498;18.544;2023-02-01T15:57:28;98883.00;;;2.40
71205;BMP180;58935;54.498;18.544;2023-02-01T16:00:03;98887.20;;;2.40
71205;BMP180;58935;54.498;18.544;2023-02-01T16:05:03;98876.60;;;2.40
71205;BMP180;58935;54.498;18.544;2023-02-01T16:07:31;98878.00;;;2.40
71205;BMP180;58935;54.498;18.544;2023-02-01T16:10:02;98880.60;;;2.40
71205;BMP180;58935;54.498;18.544;2023-02-01T16:12:46;98867.00;;;2.44
71205;BMP180;58935;54.498;18.544;2023-02-01T16:15:12;98869.60;;;2.50
71205;BMP180;58935;54.498;18.544;2023-02-01T16:17:37;98873.40;;;2.50